sensor_id;sensor_type;location;lat;lon;timestamp;temperature;humidity
9125;DHT22;4597;48.730;9.114;2022-09-27T00:00:26;11.70;99.90
9125;DHT22;4597;48.730;9.114;2022-09-27T00:02:52;11.70;99.90
9125;DHT22;4597;48.730;9.114;2022-09-27T00:05:18;11.70;99.90
9125;DHT22;4597;48.730;9.114;2022-09-27T00:07:44;11.70;99.90
9125;DHT22;4597;48.730;9.114;2022-09-27T00:10:10;11.80;99.90
9125;DHT22;4597;48.730;9.114;2022-09-27T00:12:36;11.70;99.90
9125;DHT22;4597;48.730;9.114;2022-09-27T00:15:02;11.70;99.90
9125;DHT22;4597;48.730;9.114;2022-09-27T00:17:28;11.70;99.90
9125;DHT22;4597;48.730;9.114;2022-09-27T00:19:54;11.70;99.90
9125;DHT22;4597;48.730;9.114;2022-09-27T00:22:23;11.70;99.90
9125;DHT22;4597;48.730;9.114;2022-09-27T00:24:49;11.60;99.90
9125;DHT22;4597;48.730;9.114;2022-09-27T00:27:15;11.70;99.90
9125;DHT22;4597;48.730;9.114;2022-09-27T00:29:42;11.70;99.90
9125;DHT22;4597;48.730;9.114;2022-09-27T00:32:08;11.70;99.90
9125;DHT22;4597;48.730;9.114;2022-09-27T00:34:33;11.70;99.90
9125;DHT22;4597;48.730;9.114;2022-09-27T00:36:59;11.60;99.90
9125;DHT22;4597;48.730;9.114;2022-09-27T00:39:24;11.70;99.90
9125;DHT22;4597;48.730;9.114;2022-09-27T00:41:50;11.70;99.90
9125;DHT22;4597;48.730;9.114;2022-09-27T00:47:24;11.60;99.90
9125;DHT22;4597;48.730;9.114;2022-09-27T00:50:30;11.50;99.90
9125;DHT22;4597;48.730;9.114;2022-09-27T00:55:24;11.60;99.90
9125;DHT22;4597;48.730;9.114;2022-09-27T00:57:50;11.60;99.90
9125;DHT22;4597;48.730;9.114;2022-09-27T01:00:16;11.50;99.90
9125;DHT22;4597;48.730;9.114;2022-09-27T01:02:46;11.50;99.90
9125;DHT22;4597;48.730;9.114;2022-09-27T01:05:14;11.50;99.90
9125;DHT22;4597;48.730;9.114;2022-09-27T01:07:40;11.40;99.90
9125;DHT22;4597;48.730;9.114;2022-09-27T01:10:06;11.40;99.90
9125;DHT22;4597;48.730;9.114;2022-09-27T01:12:44;11.40;99.90
9125;DHT22;4597;48.730;9.114;2022-09-27T01:15:37;11.40;99.90
9125;DHT22;4597;48.730;9.114;2022-09-27T01:18:26;11.50;99.90
9125;DHT22;4597;48.730;9.114;2022-09-27T01:21:16;11.40;99.90
9125;DHT22;4597;48.730;9.114;2022-09-27T01:29:30;11.40;99.90
9125;DHT22;4597;48.730;9.114;2022-09-27T01:32:06;11.50;99.90
9125;DHT22;4597;48.730;9.114;2022-09-27T01:34:46;11.50;99.90
9125;DHT22;4597;48.730;9.114;2022-09-27T01:40:07;11.40;99.90
9125;DHT22;4597;48.730;9.114;2022-09-27T01:43:06;11.50;99.90
9125;DHT22;4597;48.730;9.114;2022-09-27T01:45:51;11.40;99.90
9125;DHT22;4597;48.730;9.114;2022-09-27T01:48:23;11.50;99.90
9125;DHT22;4597;48.730;9.114;2022-09-27T01:51:13;11.50;99.90
9125;DHT22;4597;48.730;9.114;2022-09-27T01:53:43;11.30;99.90
9125;DHT22;4597;48.730;9.114;2022-09-27T01:56:18;11.30;99.90
9125;DHT22;4597;48.730;9.114;2022-09-27T01:58:51;11.20;99.90
9125;DHT22;4597;48.730;9.114;2022-09-27T02:01:20;11.20;99.90
9125;DHT22;4597;48.730;9.114;2022-09-27T02:03:49;11.00;99.90
9125;DHT22;4597;48.730;9.114;2022-09-27T02:11:16;11.00;99.90
9125;DHT22;4597;48.730;9.114;2022-09-27T02:16:32;10.90;99.90
9125;DHT22;4597;48.730;9.114;2022-09-27T02:22:10;10.70;99.90
9125;DHT22;4597;48.730;9.114;2022-09-27T02:24:47;10.70;99.90
9125;DHT22;4597;48.730;9.114;2022-09-27T02:27:18;10.70;99.90
9125;DHT22;4597;48.730;9.114;2022-09-27T02:29:52;10.70;99.90
9125;DHT22;4597;48.730;9.114;2022-09-27T02:32:19;10.60;99.90
9125;DHT22;4597;48.730;9.114;2022-09-27T02:34:46;10.60;99.90
9125;DHT22;4597;48.730;9.114;2022-09-27T02:37:12;10.50;99.90
9125;DHT22;4597;48.730;9.114;2022-09-27T02:39:38;10.50;99.90
9125;DHT22;4597;48.730;9.114;2022-09-27T02:42:04;10.40;99.90
9125;DHT22;4597;48.730;9.114;2022-09-27T02:44:30;10.40;99.90
9125;DHT22;4597;48.730;9.114;2022-09-27T02:47:24;10.30;99.90
9125;DHT22;4597;48.730;9.114;2022-09-27T02:49:59;10.30;99.90
9125;DHT22;4597;48.730;9.114;2022-09-27T02:55:41;10.40;99.90
9125;DHT22;4597;48.730;9.114;2022-09-27T03:01:06;10.30;99.90
9125;DHT22;4597;48.730;9.114;2022-09-27T03:03:51;10.30;99.90
9125;DHT22;4597;48.730;9.114;2022-09-27T03:06:19;10.20;99.90
9125;DHT22;4597;48.730;9.114;2022-09-27T03:08:46;10.20;99.90
9125;DHT22;4597;48.730;9.114;2022-09-27T03:11:12;10.20;99.90
9125;DHT22;4597;48.730;9.114;2022-09-27T03:13:37;10.20;99.90
9125;DHT22;4597;48.730;9.114;2022-09-27T03:16:05;10.20;99.90
9125;DHT22;4597;48.730;9.114;2022-09-27T03:18:31;10.30;99.90
9125;DHT22;4597;48.730;9.114;2022-09-27T03:20:57;10.20;99.90
9125;DHT22;4597;48.730;9.114;2022-09-27T03:23:22;10.20;99.90
9125;DHT22;4597;48.730;9.114;2022-09-27T03:25:49;10.20;99.90
9125;DHT22;4597;48.730;9.114;2022-09-27T03:28:16;10.10;99.90
9125;DHT22;4597;48.730;9.114;2022-09-27T03:30:44;10.20;99.90
9125;DHT22;4597;48.730;9.114;2022-09-27T03:33:10;10.20;99.90
9125;DHT22;4597;48.730;9.114;2022-09-27T03:35:35;10.20;99.90
9125;DHT22;4597;48.730;9.114;2022-09-27T03:38:01;10.20;99.90
9125;DHT22;4597;48.730;9.114;2022-09-27T03:40:27;10.10;99.90
9125;DHT22;4597;48.730;9.114;2022-09-27T03:42:53;10.20;99.90
9125;DHT22;4597;48.730;9.114;2022-09-27T03:45:19;10.20;99.90
9125;DHT22;4597;48.730;9.114;2022-09-27T03:47:45;10.10;99.90
9125;DHT22;4597;48.730;9.114;2022-09-27T03:50:11;10.10;99.90
9125;DHT22;4597;48.730;9.114;2022-09-27T03:52:37;10.10;99.90
9125;DHT22;4597;48.730;9.114;2022-09-27T03:55:03;10.20;99.90
9125;DHT22;4597;48.730;9.114;2022-09-27T03:57:29;10.20;99.90
9125;DHT22;4597;48.730;9.114;2022-09-27T03:59:56;10.20;99.90
9125;DHT22;4597;48.730;9.114;2022-09-27T04:02:24;10.20;99.90
9125;DHT22;4597;48.730;9.114;2022-09-27T04:04:50;10.20;99.90
9125;DHT22;4597;48.730;9.114;2022-09-27T04:07:15;10.20;99.90
9125;DHT22;4597;48.730;9.114;2022-09-27T04:09:42;10.10;99.90
9125;DHT22;4597;48.730;9.114;2022-09-27T04:12:08;10.10;99.90
9125;DHT22;4597;48.730;9.114;2022-09-27T04:14:34;10.10;99.90
9125;DHT22;4597;48.730;9.114;2022-09-27T04:17:00;10.10;99.90
9125;DHT22;4597;48.730;9.114;2022-09-27T04:19:25;10.10;99.90
9125;DHT22;4597;48.730;9.114;2022-09-27T04:21:51;10.10;99.90
9125;DHT22;4597;48.730;9.114;2022-09-27T04:24:16;10.10;99.90
9125;DHT22;4597;48.730;9.114;2022-09-27T04:26:42;10.10;99.90
9125;DHT22;4597;48.730;9.114;2022-09-27T04:29:07;10.20;99.90
9125;DHT22;4597;48.730;9.114;2022-09-27T04:31:34;10.20;99.90
9125;DHT22;4597;48.730;9.114;2022-09-27T04:34:00;10.10;99.90
9125;DHT22;4597;48.730;9.114;2022-09-27T04:36:26;10.20;99.90
9125;DHT22;4597;48.730;9.114;2022-09-27T04:38:56;10.20;99.90
9125;DHT22;4597;48.730;9.114;2022-09-27T04:41:23;10.20;99.90
9125;DHT22;4597;48.730;9.114;2022-09-27T04:43:51;10.20;99.90
9125;DHT22;4597;48.730;9.114;2022-09-27T04:46:17;10.10;99.90
9125;DHT22;4597;48.730;9.114;2022-09-27T04:48:44;10.10;99.90
9125;DHT22;4597;48.730;9.114;2022-09-27T04:51:14;10.10;99.90
9125;DHT22;4597;48.730;9.114;2022-09-27T04:53:43;10.10;99.90
9125;DHT22;4597;48.730;9.114;2022-09-27T04:56:09;10.10;99.90
9125;DHT22;4597;48.730;9.114;2022-09-27T04:58:35;10.10;99.90
9125;DHT22;4597;48.730;9.114;2022-09-27T05:01:01;10.10;99.90
9125;DHT22;4597;48.730;9.114;2022-09-27T05:03:29;10.10;99.90
9125;DHT22;4597;48.730;9.114;2022-09-27T05:05:54;10.10;99.90
9125;DHT22;4597;48.730;9.114;2022-09-27T05:08:20;10.10;99.90
9125;DHT22;4597;48.730;9.114;2022-09-27T05:10:46;10.10;99.90
9125;DHT22;4597;48.730;9.114;2022-09-27T05:13:12;10.00;99.90
9125;DHT22;4597;48.730;9.114;2022-09-27T05:15:38;10.00;99.90
9125;DHT22;4597;48.730;9.114;2022-09-27T05:18:04;10.00;99.90
9125;DHT22;4597;48.730;9.114;2022-09-27T05:20:32;10.00;99.90
9125;DHT22;4597;48.730;9.114;2022-09-27T05:22:59;10.00;99.90
9125;DHT22;4597;48.730;9.114;2022-09-27T05:25:24;10.00;99.90
9125;DHT22;4597;48.730;9.114;2022-09-27T05:27:51;10.00;99.90
9125;DHT22;4597;48.730;9.114;2022-09-27T05:30:17;9.90;99.90
9125;DHT22;4597;48.730;9.114;2022-09-27T05:32:43;9.90;99.90
9125;DHT22;4597;48.730;9.114;2022-09-27T05:35:09;9.90;99.90
9125;DHT22;4597;48.730;9.114;2022-09-27T05:37:35;9.90;99.90
9125;DHT22;4597;48.730;9.114;2022-09-27T05:40:01;9.80;99.90
9125;DHT22;4597;48.730;9.114;2022-09-27T05:42:27;9.80;99.90
9125;DHT22;4597;48.730;9.114;2022-09-27T05:44:52;9.90;99.90
9125;DHT22;4597;48.730;9.114;2022-09-27T05:47:18;9.90;99.90
9125;DHT22;4597;48.730;9.114;2022-09-27T05:49:43;9.90;99.90
9125;DHT22;4597;48.730;9.114;2022-09-27T05:52:09;9.90;99.90
9125;DHT22;4597;48.730;9.114;2022-09-27T05:54:35;10.00;99.90
9125;DHT22;4597;48.730;9.114;2022-09-27T05:57:00;10.00;99.90
9125;DHT22;4597;48.730;9.114;2022-09-27T05:59:26;9.90;99.90
9125;DHT22;4597;48.730;9.114;2022-09-27T06:01:53;9.90;99.90
9125;DHT22;4597;48.730;9.114;2022-09-27T06:04:19;9.90;99.90
9125;DHT22;4597;48.730;9.114;2022-09-27T06:06:46;10.00;99.90
9125;DHT22;4597;48.730;9.114;2022-09-27T06:09:13;10.00;99.90
9125;DHT22;4597;48.730;9.114;2022-09-27T06:11:39;10.00;99.90
9125;DHT22;4597;48.730;9.114;2022-09-27T06:14:05;10.10;99.90
9125;DHT22;4597;48.730;9.114;2022-09-27T06:16:31;10.10;99.90
9125;DHT22;4597;48.730;9.114;2022-09-27T06:18:56;10.10;99.90
9125;DHT22;4597;48.730;9.114;2022-09-27T06:21:22;10.00;99.90
9125;DHT22;4597;48.730;9.114;2022-09-27T06:23:48;10.10;99.90
9125;DHT22;4597;48.730;9.114;2022-09-27T06:26:14;10.10;99.90
9125;DHT22;4597;48.730;9.114;2022-09-27T06:28:39;10.10;99.90
9125;DHT22;4597;48.730;9.114;2022-09-27T06:31:06;10.10;99.90
9125;DHT22;4597;48.730;9.114;2022-09-27T06:33:36;10.10;99.90
9125;DHT22;4597;48.730;9.114;2022-09-27T06:36:03;10.20;99.90
9125;DHT22;4597;48.730;9.114;2022-09-27T06:38:29;10.10;99.90
9125;DHT22;4597;48.730;9.114;2022-09-27T06:40:54;10.10;99.90
9125;DHT22;4597;48.730;9.114;2022-09-27T06:43:23;10.10;99.90
9125;DHT22;4597;48.730;9.114;2022-09-27T06:45:48;10.10;99.90
9125;DHT22;4597;48.730;9.114;2022-09-27T06:48:15;10.00;99.90
9125;DHT22;4597;48.730;9.114;2022-09-27T06:50:43;9.90;99.90
9125;DHT22;4597;48.730;9.114;2022-09-27T06:53:10;9.90;99.90
9125;DHT22;4597;48.730;9.114;2022-09-27T06:55:36;9.90;99.90
9125;DHT22;4597;48.730;9.114;2022-09-27T06:58:03;9.90;99.90
9125;DHT22;4597;48.730;9.114;2022-09-27T07:00:49;9.90;99.90
9125;DHT22;4597;48.730;9.114;2022-09-27T07:03:15;9.90;99.90
9125;DHT22;4597;48.730;9.114;2022-09-27T07:05:41;9.90;99.90
9125;DHT22;4597;48.730;9.114;2022-09-27T07:08:11;9.90;99.90
9125;DHT22;4597;48.730;9.114;2022-09-27T07:10:38;9.70;99.90
9125;DHT22;4597;48.730;9.114;2022-09-27T07:13:08;9.80;99.90
9125;DHT22;4597;48.730;9.114;2022-09-27T07:15:35;9.80;99.90
9125;DHT22;4597;48.730;9.114;2022-09-27T07:18:02;9.80;99.90
9125;DHT22;4597;48.730;9.114;2022-09-27T07:20:28;9.80;99.90
9125;DHT22;4597;48.730;9.114;2022-09-27T07:22:54;9.90;99.90
9125;DHT22;4597;48.730;9.114;2022-09-27T07:25:20;9.90;99.90
9125;DHT22;4597;48.730;9.114;2022-09-27T07:27:45;9.80;99.90
9125;DHT22;4597;48.730;9.114;2022-09-27T07:30:12;9.80;99.90
9125;DHT22;4597;48.730;9.114;2022-09-27T07:32:38;9.80;99.90
9125;DHT22;4597;48.730;9.114;2022-09-27T07:35:06;9.90;99.90
9125;DHT22;4597;48.730;9.114;2022-09-27T07:37:33;10.00;99.90
9125;DHT22;4597;48.730;9.114;2022-09-27T07:40:00;9.90;99.90
9125;DHT22;4597;48.730;9.114;2022-09-27T07:42:26;9.90;99.90
9125;DHT22;4597;48.730;9.114;2022-09-27T07:44:55;9.90;99.90
9125;DHT22;4597;48.730;9.114;2022-09-27T07:47:21;9.90;99.90
9125;DHT22;4597;48.730;9.114;2022-09-27T07:49:50;9.90;99.90
9125;DHT22;4597;48.730;9.114;2022-09-27T07:52:17;9.90;99.90
9125;DHT22;4597;48.730;9.114;2022-09-27T07:54:44;10.00;99.90
9125;DHT22;4597;48.730;9.114;2022-09-27T07:57:09;10.10;99.90
9125;DHT22;4597;48.730;9.114;2022-09-27T07:59:35;10.10;99.90
9125;DHT22;4597;48.730;9.114;2022-09-27T08:02:01;10.10;99.90
9125;DHT22;4597;48.730;9.114;2022-09-27T08:04:26;10.20;99.90
9125;DHT22;4597;48.730;9.114;2022-09-27T08:06:53;10.20;99.90
9125;DHT22;4597;48.730;9.114;2022-09-27T08:09:18;10.40;99.90
9125;DHT22;4597;48.730;9.114;2022-09-27T08:11:44;10.40;99.90
9125;DHT22;4597;48.730;9.114;2022-09-27T08:14:09;10.50;99.90
9125;DHT22;4597;48.730;9.114;2022-09-27T08:16:35;10.60;99.90
9125;DHT22;4597;48.730;9.114;2022-09-27T08:19:01;10.50;99.90
9125;DHT22;4597;48.730;9.114;2022-09-27T08:21:26;10.50;99.90
9125;DHT22;4597;48.730;9.114;2022-09-27T08:23:52;10.50;99.90
9125;DHT22;4597;48.730;9.114;2022-09-27T08:26:18;10.60;99.90
9125;DHT22;4597;48.730;9.114;2022-09-27T08:28:46;10.70;99.90
9125;DHT22;4597;48.730;9.114;2022-09-27T08:31:12;10.60;99.90
9125;DHT22;4597;48.730;9.114;2022-09-27T08:33:37;10.60;99.90
9125;DHT22;4597;48.730;9.114;2022-09-27T08:36:03;10.60;99.90
9125;DHT22;4597;48.730;9.114;2022-09-27T08:38:29;10.60;99.90
9125;DHT22;4597;48.730;9.114;2022-09-27T08:40:58;10.60;99.90
9125;DHT22;4597;48.730;9.114;2022-09-27T08:43:51;10.60;99.90
9125;DHT22;4597;48.730;9.114;2022-09-27T08:46:40;10.50;99.90
9125;DHT22;4597;48.730;9.114;2022-09-27T08:49:17;10.50;99.90
9125;DHT22;4597;48.730;9.114;2022-09-27T08:51:44;10.50;99.90
9125;DHT22;4597;48.730;9.114;2022-09-27T08:54:19;10.50;99.90
9125;DHT22;4597;48.730;9.114;2022-09-27T08:56:46;10.50;99.90
9125;DHT22;4597;48.730;9.114;2022-09-27T08:59:15;10.30;99.90
9125;DHT22;4597;48.730;9.114;2022-09-27T09:01:47;10.30;99.90
9125;DHT22;4597;48.730;9.114;2022-09-27T09:04:15;10.30;99.90
9125;DHT22;4597;48.730;9.114;2022-09-27T09:17:37;10.90;99.90
9125;DHT22;4597;48.730;9.114;2022-09-27T09:23:12;11.30;99.90
9125;DHT22;4597;48.730;9.114;2022-09-27T09:28:31;11.60;99.90
9125;DHT22;4597;48.730;9.114;2022-09-27T09:31:14;11.60;99.90
9125;DHT22;4597;48.730;9.114;2022-09-27T09:33:53;11.70;99.90
9125;DHT22;4597;48.730;9.114;2022-09-27T09:36:28;11.80;99.90
9125;DHT22;4597;48.730;9.114;2022-09-27T09:38:58;11.80;99.90
9125;DHT22;4597;48.730;9.114;2022-09-27T09:41:33;11.80;99.90
9125;DHT22;4597;48.730;9.114;2022-09-27T09:46:45;11.70;99.90
9125;DHT22;4597;48.730;9.114;2022-09-27T09:49:44;11.70;99.90
9125;DHT22;4597;48.730;9.114;2022-09-27T09:52:14;11.70;99.90
9125;DHT22;4597;48.730;9.114;2022-09-27T09:54:47;11.70;99.90
9125;DHT22;4597;48.730;9.114;2022-09-27T09:57:24;11.70;99.90
9125;DHT22;4597;48.730;9.114;2022-09-27T09:59:56;11.80;99.90
9125;DHT22;4597;48.730;9.114;2022-09-27T10:02:36;12.00;99.90
9125;DHT22;4597;48.730;9.114;2022-09-27T10:05:03;12.20;99.90
9125;DHT22;4597;48.730;9.114;2022-09-27T10:07:31;12.40;99.90
9125;DHT22;4597;48.730;9.114;2022-09-27T10:09:59;12.60;99.90
9125;DHT22;4597;48.730;9.114;2022-09-27T10:12:27;12.60;99.90
9125;DHT22;4597;48.730;9.114;2022-09-27T10:14:54;12.50;99.90
9125;DHT22;4597;48.730;9.114;2022-09-27T10:17:24;12.30;99.90
9125;DHT22;4597;48.730;9.114;2022-09-27T10:19:51;12.10;99.90
9125;DHT22;4597;48.730;9.114;2022-09-27T10:22:31;11.90;99.90
9125;DHT22;4597;48.730;9.114;2022-09-27T10:25:06;11.90;99.90
9125;DHT22;4597;48.730;9.114;2022-09-27T10:27:44;11.80;99.90
9125;DHT22;4597;48.730;9.114;2022-09-27T10:32:50;11.90;99.90
9125;DHT22;4597;48.730;9.114;2022-09-27T10:40:50;11.70;99.90
9125;DHT22;4597;48.730;9.114;2022-09-27T10:43:27;11.60;99.90
9125;DHT22;4597;48.730;9.114;2022-09-27T10:46:04;11.40;99.90
9125;DHT22;4597;48.730;9.114;2022-09-27T10:48:30;11.40;99.90
9125;DHT22;4597;48.730;9.114;2022-09-27T10:51:19;11.40;99.90
9125;DHT22;4597;48.730;9.114;2022-09-27T10:53:45;11.40;99.90
9125;DHT22;4597;48.730;9.114;2022-09-27T10:56:21;11.30;99.90
9125;DHT22;4597;48.730;9.114;2022-09-27T10:58:47;11.30;99.90
9125;DHT22;4597;48.730;9.114;2022-09-27T11:01:13;11.20;99.90
9125;DHT22;4597;48.730;9.114;2022-09-27T11:03:52;11.30;99.90
9125;DHT22;4597;48.730;9.114;2022-09-27T11:08:49;11.20;99.90
9125;DHT22;4597;48.730;9.114;2022-09-27T11:11:24;11.10;99.90
9125;DHT22;4597;48.730;9.114;2022-09-27T11:16:36;10.90;99.90
9125;DHT22;4597;48.730;9.114;2022-09-27T11:21:54;10.80;99.90
9125;DHT22;4597;48.730;9.114;2022-09-27T11:24:38;10.70;99.90
9125;DHT22;4597;48.730;9.114;2022-09-27T11:27:29;10.60;99.90
9125;DHT22;4597;48.730;9.114;2022-09-27T11:35:25;10.30;99.90
9125;DHT22;4597;48.730;9.114;2022-09-27T11:38:22;10.20;99.90
9125;DHT22;4597;48.730;9.114;2022-09-27T11:41:29;10.20;99.90
9125;DHT22;4597;48.730;9.114;2022-09-27T11:44:22;10.10;99.90
9125;DHT22;4597;48.730;9.114;2022-09-27T11:49:43;9.90;99.90
9125;DHT22;4597;48.730;9.114;2022-09-27T12:03:57;9.20;99.90
9125;DHT22;4597;48.730;9.114;2022-09-27T12:06:41;9.40;99.90
9125;DHT22;4597;48.730;9.114;2022-09-27T12:09:11;9.50;99.90
9125;DHT22;4597;48.730;9.114;2022-09-27T12:11:51;9.60;99.90
9125;DHT22;4597;48.730;9.114;2022-09-27T12:14:28;9.70;99.90
9125;DHT22;4597;48.730;9.114;2022-09-27T12:16:57;9.70;99.90
9125;DHT22;4597;48.730;9.114;2022-09-27T12:19:31;9.50;99.90
9125;DHT22;4597;48.730;9.114;2022-09-27T12:22:01;9.50;99.90
9125;DHT22;4597;48.730;9.114;2022-09-27T12:24:27;9.50;99.90
9125;DHT22;4597;48.730;9.114;2022-09-27T12:26:55;9.50;99.90
9125;DHT22;4597;48.730;9.114;2022-09-27T12:29:29;9.60;99.90
9125;DHT22;4597;48.730;9.114;2022-09-27T12:32:07;9.50;99.90
9125;DHT22;4597;48.730;9.114;2022-09-27T12:34:47;9.50;99.90
9125;DHT22;4597;48.730;9.114;2022-09-27T12:37:36;9.60;99.90
9125;DHT22;4597;48.730;9.114;2022-09-27T12:40:24;9.50;99.90
9125;DHT22;4597;48.730;9.114;2022-09-27T12:43:21;9.40;99.90
9125;DHT22;4597;48.730;9.114;2022-09-27T12:46:19;9.30;99.90
9125;DHT22;4597;48.730;9.114;2022-09-27T12:51:29;9.30;99.90
9125;DHT22;4597;48.730;9.114;2022-09-27T12:56:47;9.10;99.90
9125;DHT22;4597;48.730;9.114;2022-09-27T13:00:00;9.00;99.90
9125;DHT22;4597;48.730;9.114;2022-09-27T13:05:16;9.00;99.90
9125;DHT22;4597;48.730;9.114;2022-09-27T13:10:47;9.40;99.90
9125;DHT22;4597;48.730;9.114;2022-09-27T13:13:17;9.40;99.90
9125;DHT22;4597;48.730;9.114;2022-09-27T13:15:45;9.50;99.90
9125;DHT22;4597;48.730;9.114;2022-09-27T13:27:42;9.90;99.90
9125;DHT22;4597;48.730;9.114;2022-09-27T13:32:37;10.10;99.90
9125;DHT22;4597;48.730;9.114;2022-09-27T13:35:19;10.30;99.90
9125;DHT22;4597;48.730;9.114;2022-09-27T13:37:51;10.40;99.90
9125;DHT22;4597;48.730;9.114;2022-09-27T13:40:24;10.40;99.90
9125;DHT22;4597;48.730;9.114;2022-09-27T13:43:00;10.40;99.90
9125;DHT22;4597;48.730;9.114;2022-09-27T13:45:48;10.20;99.90
9125;DHT22;4597;48.730;9.114;2022-09-27T13:48:43;10.20;99.90
9125;DHT22;4597;48.730;9.114;2022-09-27T13:51:39;10.10;99.90
9125;DHT22;4597;48.730;9.114;2022-09-27T13:54:49;10.00;99.90
9125;DHT22;4597;48.730;9.114;2022-09-27T13:58:07;9.90;99.90
9125;DHT22;4597;48.730;9.114;2022-09-27T14:00:38;10.00;99.90
9125;DHT22;4597;48.730;9.114;2022-09-27T14:03:17;9.90;99.90
9125;DHT22;4597;48.730;9.114;2022-09-27T14:05:56;9.90;99.90
9125;DHT22;4597;48.730;9.114;2022-09-27T14:08:36;9.90;99.90
9125;DHT22;4597;48.730;9.114;2022-09-27T14:11:10;9.90;99.90
9125;DHT22;4597;48.730;9.114;2022-09-27T14:13:37;9.90;99.90
9125;DHT22;4597;48.730;9.114;2022-09-27T14:16:04;9.90;99.90
9125;DHT22;4597;48.730;9.114;2022-09-27T14:18:32;9.80;99.90
9125;DHT22;4597;48.730;9.114;2022-09-27T14:21:25;9.80;99.90
9125;DHT22;4597;48.730;9.114;2022-09-27T14:23:51;9.90;99.90
9125;DHT22;4597;48.730;9.114;2022-09-27T14:26:25;9.90;99.90
9125;DHT22;4597;48.730;9.114;2022-09-27T14:28:51;9.90;99.90
9125;DHT22;4597;48.730;9.114;2022-09-27T14:31:20;9.90;99.90
9125;DHT22;4597;48.730;9.114;2022-09-27T14:33:47;10.20;99.90
9125;DHT22;4597;48.730;9.114;2022-09-27T14:36:33;10.20;99.90
9125;DHT22;4597;48.730;9.114;2022-09-27T14:39:23;10.30;99.90
9125;DHT22;4597;48.730;9.114;2022-09-27T14:41:50;10.20;99.90
9125;DHT22;4597;48.730;9.114;2022-09-27T14:44:18;10.30;99.90
9125;DHT22;4597;48.730;9.114;2022-09-27T14:46:44;10.30;99.90
9125;DHT22;4597;48.730;9.114;2022-09-27T14:49:21;10.30;99.90
9125;DHT22;4597;48.730;9.114;2022-09-27T14:51:55;10.20;99.90
9125;DHT22;4597;48.730;9.114;2022-09-27T14:54:23;10.50;99.90
9125;DHT22;4597;48.730;9.114;2022-09-27T14:56:54;10.90;99.90
9125;DHT22;4597;48.730;9.114;2022-09-27T14:59:33;11.10;99.90
9125;DHT22;4597;48.730;9.114;2022-09-27T15:02:02;11.20;99.90
9125;DHT22;4597;48.730;9.114;2022-09-27T15:04:30;11.00;99.90
9125;DHT22;4597;48.730;9.114;2022-09-27T15:06:57;10.90;99.90
9125;DHT22;4597;48.730;9.114;2022-09-27T15:09:23;10.70;99.90
9125;DHT22;4597;48.730;9.114;2022-09-27T15:11:54;10.70;99.90
9125;DHT22;4597;48.730;9.114;2022-09-27T15:14:21;10.70;99.90
9125;DHT22;4597;48.730;9.114;2022-09-27T15:16:49;10.70;99.90
9125;DHT22;4597;48.730;9.114;2022-09-27T15:19:26;10.70;99.90
9125;DHT22;4597;48.730;9.114;2022-09-27T15:21:54;10.80;99.90
9125;DHT22;4597;48.730;9.114;2022-09-27T15:24:37;10.80;99.90
9125;DHT22;4597;48.730;9.114;2022-09-27T15:27:21;10.80;99.90
9125;DHT22;4597;48.730;9.114;2022-09-27T15:29:50;10.80;99.90
9125;DHT22;4597;48.730;9.114;2022-09-27T15:32:21;10.80;99.90
9125;DHT22;4597;48.730;9.114;2022-09-27T15:34:48;10.70;99.90
9125;DHT22;4597;48.730;9.114;2022-09-27T15:39:53;11.80;99.90
9125;DHT22;4597;48.730;9.114;2022-09-27T15:42:18;12.40;99.90
9125;DHT22;4597;48.730;9.114;2022-09-27T15:44:52;12.80;99.90
9125;DHT22;4597;48.730;9.114;2022-09-27T15:50:29;14.90;99.90
9125;DHT22;4597;48.730;9.114;2022-09-27T15:52:50;15.30;99.90
9125;DHT22;4597;48.730;9.114;2022-09-27T15:55:18;14.80;99.90
9125;DHT22;4597;48.730;9.114;2022-09-27T15:57:47;14.60;99.90
9125;DHT22;4597;48.730;9.114;2022-09-27T16:00:17;15.20;99.90
9125;DHT22;4597;48.730;9.114;2022-09-27T16:02:43;15.80;99.90
9125;DHT22;4597;48.730;9.114;2022-09-27T16:05:09;15.60;99.90
9125;DHT22;4597;48.730;9.114;2022-09-27T16:07:35;15.20;99.90
9125;DHT22;4597;48.730;9.114;2022-09-27T16:10:00;14.30;99.90
9125;DHT22;4597;48.730;9.114;2022-09-27T16:12:26;13.90;99.90
9125;DHT22;4597;48.730;9.114;2022-09-27T16:14:55;13.70;99.90
9125;DHT22;4597;48.730;9.114;2022-09-27T16:17:20;13.80;99.90
9125;DHT22;4597;48.730;9.114;2022-09-27T16:19:46;13.60;99.90
9125;DHT22;4597;48.730;9.114;2022-09-27T16:22:12;13.30;99.90
9125;DHT22;4597;48.730;9.114;2022-09-27T16:24:37;12.90;99.90
9125;DHT22;4597;48.730;9.114;2022-09-27T16:27:03;12.40;99.90
9125;DHT22;4597;48.730;9.114;2022-09-27T16:29:29;12.10;99.90
9125;DHT22;4597;48.730;9.114;2022-09-27T16:31:54;11.90;99.90
9125;DHT22;4597;48.730;9.114;2022-09-27T16:34:20;11.80;99.90
9125;DHT22;4597;48.730;9.114;2022-09-27T16:36:47;11.90;99.90
9125;DHT22;4597;48.730;9.114;2022-09-27T16:39:13;11.60;99.90
9125;DHT22;4597;48.730;9.114;2022-09-27T16:41:39;11.50;99.90
9125;DHT22;4597;48.730;9.114;2022-09-27T16:44:10;11.40;99.90
9125;DHT22;4597;48.730;9.114;2022-09-27T16:46:39;11.30;99.90
9125;DHT22;4597;48.730;9.114;2022-09-27T16:49:04;11.20;99.90
9125;DHT22;4597;48.730;9.114;2022-09-27T16:51:50;11.10;99.90
9125;DHT22;4597;48.730;9.114;2022-09-27T16:54:24;10.90;99.90
9125;DHT22;4597;48.730;9.114;2022-09-27T16:56:53;10.80;99.90
9125;DHT22;4597;48.730;9.114;2022-09-27T16:59:19;10.80;99.90
9125;DHT22;4597;48.730;9.114;2022-09-27T17:01:45;10.80;99.90
9125;DHT22;4597;48.730;9.114;2022-09-27T17:04:11;10.80;99.90
9125;DHT22;4597;48.730;9.114;2022-09-27T17:06:38;10.60;99.90
9125;DHT22;4597;48.730;9.114;2022-09-27T17:09:04;10.50;99.90
9125;DHT22;4597;48.730;9.114;2022-09-27T17:11:31;10.40;99.90
9125;DHT22;4597;48.730;9.114;2022-09-27T17:13:56;10.40;99.90
9125;DHT22;4597;48.730;9.114;2022-09-27T17:16:22;10.30;99.90
9125;DHT22;4597;48.730;9.114;2022-09-27T17:18:49;10.30;99.90
9125;DHT22;4597;48.730;9.114;2022-09-27T17:21:14;10.10;99.90
9125;DHT22;4597;48.730;9.114;2022-09-27T17:23:40;10.10;99.90
9125;DHT22;4597;48.730;9.114;2022-09-27T17:26:20;10.10;99.90
9125;DHT22;4597;48.730;9.114;2022-09-27T17:28:46;10.00;99.90
9125;DHT22;4597;48.730;9.114;2022-09-27T17:31:15;10.00;99.90
9125;DHT22;4597;48.730;9.114;2022-09-27T17:33:44;10.00;99.90
9125;DHT22;4597;48.730;9.114;2022-09-27T17:36:12;10.10;99.90
9125;DHT22;4597;48.730;9.114;2022-09-27T17:38:38;10.10;99.90
9125;DHT22;4597;48.730;9.114;2022-09-27T17:41:07;10.00;99.90
9125;DHT22;4597;48.730;9.114;2022-09-27T17:43:36;10.00;99.90
9125;DHT22;4597;48.730;9.114;2022-09-27T17:46:07;9.90;99.90
9125;DHT22;4597;48.730;9.114;2022-09-27T17:48:34;9.90;99.90
9125;DHT22;4597;48.730;9.114;2022-09-27T17:51:18;9.80;99.90
9125;DHT22;4597;48.730;9.114;2022-09-27T17:53:44;9.70;99.90
9125;DHT22;4597;48.730;9.114;2022-09-27T17:56:11;9.70;99.90
9125;DHT22;4597;48.730;9.114;2022-09-27T17:58:37;9.60;99.90
9125;DHT22;4597;48.730;9.114;2022-09-27T18:01:06;9.60;99.90
9125;DHT22;4597;48.730;9.114;2022-09-27T18:03:33;9.60;99.90
9125;DHT22;4597;48.730;9.114;2022-09-27T18:06:04;9.60;99.90
9125;DHT22;4597;48.730;9.114;2022-09-27T18:08:30;9.60;99.90
9125;DHT22;4597;48.730;9.114;2022-09-27T18:11:01;9.60;99.90
9125;DHT22;4597;48.730;9.114;2022-09-27T18:13:27;9.60;99.90
9125;DHT22;4597;48.730;9.114;2022-09-27T18:15:54;9.60;99.90
9125;DHT22;4597;48.730;9.114;2022-09-27T18:18:23;9.60;99.90
9125;DHT22;4597;48.730;9.114;2022-09-27T18:20:49;9.60;99.90